Sibley, IA

5:02 PM CDT on July 31, 2014 (GMT -0500)
Sheldon Municipal (KSHL) Elev 1417 ft | 43.21 °N, 95.84 °W | Change Station

Current weather conditions updated 7 minutes ago

Scattered Clouds
Scattered Clouds
75 °F
Feels Like 75 °F
N
6
Wind Variable Wind from WSW

Tomorrow is forecast to be Warmer than today.

Today
High -- | Low -- °F
--% Chance of Precip.
Yesterday
High -- | Low -- °F
Precip. -- in
6:11 AM 8:46 PM
Waxing Crescent, 21% visible
Pressure 30.05 in
Visibility 10.0 miles
Clouds Scattered Clouds 9000 ft
Dew Point 63 °F
Humidity 65%
Rainfall 0.00 in
Snow Depth Not available.
UV 4 out of 12
Pollen 6.40 out of 12
Air Quality Not available.
Flu Activity Not available.
METAR KSHL 312155Z AUTO 25005KT 10SM SCT090 24/17 A3005 RMK AO2

More Conditions Fewer Conditions

Pressure 30.05 in
Visibility 10.0 miles
Clouds Scattered Clouds 9000 ft
Dew Point 63 °F
Humidity 65%
Rainfall 0.00 in
Snow Depth Not available.
UV 4 out of 12
Pollen 6.40 out of 12
Air Quality Not available.
Flu Activity Not available.
METAR KSHL 312155Z AUTO 25005KT 10SM SCT090 24/17 A3005 RMK AO2

More Conditions Fewer Conditions

10-Day Weather Forecast

Almanac

Astronomy

Jul. 31, 2014 Rise Set
Actual Time 6:11 AM CDT 8:46 PM CDT
Civil Twilight 5:39 AM CDT 9:18 PM CDT
Nautical Twilight 4:58 AM CDT 9:59 PM CDT
Astronomical Twilight 4:11 AM CDT 10:45 PM CDT
Moon 10:49 AM CDT 10:49 PM CDT
Length of Visible Light 15h 39m
Length of Day
14h 34m
Tomorrow will be 2m 15s shorter.
Waxing Crescent, 21% of the Moon is Illuminated
Today
Waxing Crescent
Aug 3
First Quarter
Aug 10
Full
Aug 17
Last Quarter
Aug 25
New

Today's Extremes

State Highs State Lows

Community

WunderPhotos

Upload Photos

1,739,457 photos uploaded!

Nearby

Snow Depth

Station Depth Elevation
No new snow has been reported.

Earthquake Activity

City Distance Mag. Time & Date
No recent earthquake activity has been reported nearby.
Minimum magnitude displayed is 2.5.

Coastal Water Temperatures

Place Temperature
No Stations Reporting

Nearby Weather Stations

Station Location Temp. Heat Index Dew Point Humidity Wind Precip. Elev Updated Type
MesoWest SIBLEY , Sibley, IA 84 °F 81 °F - - North  at  - 0.00 in / hr 1530 ft 2:35 PM CDT MADIS
Wilson Street, Sheldon, IA 78.8 °F 81 °F 69 °F 73% SSW  at  0.0 mph 0.00 in / hr 1447 ft 5:02 PM CDT Rapid Fire
Round Lake, Round Lake, MN 79.1 °F 80 °F 60 °F 53% SSE  at  4.0 mph 0.00 in / hr 1535 ft 4:55 PM CDT Normal
MesoWest HOSPER , Hospers, IA 82 °F 80 °F - - North  at  - 0.00 in / hr 1375 ft 1:40 PM CDT MADIS
Dugout Creek, Lake Park, IA 78.1 °F 80 °F 63 °F 59% WSW  at  6.4 mph 0.00 in / hr 1444 ft 5:02 PM CDT Rapid Fire

Show More Stations Show Fewer Stations